Time;durP1;ratioP1;P1;durP2;ratioP2;P2;SDS_P1;SDS_P2;PMS_P1;PMS_P2;Temp;Humidity;BMP_temperature;BMP_pressure;BME280_temperature;BME280_humidity;BME280_pressure;Samples;Min_cycle;Max_cycle;Signal;HPM_P1;HPM_P2
2023/06/30 00:01:57;;;;;;;9.40;6.70;;;22.60;92.10;;;;;;4852556;29;20477;-68
2023/06/30 00:04:23;;;;;;;5.93;5.53;;;22.60;92.00;;;;;;4853855;29;20192;-68
2023/06/30 00:06:49;;;;;;;6.40;5.83;;;22.70;92.10;;;;;;4855028;29;20487;-68
2023/06/30 00:09:20;;;;;;;5.93;5.53;;;22.60;92.10;;;;;;4857440;29;20486;-67
2023/06/30 00:11:48;;;;;;;6.63;5.93;;;22.60;92.30;;;;;;4849963;29;20997;-68
2023/06/30 00:14:13;;;;;;;6.10;5.63;;;22.50;92.70;;;;;;4853954;29;20868;-68
2023/06/30 00:16:39;;;;;;;6.70;6.10;;;22.50;92.80;;;;;;4853418;29;20516;-68
2023/06/30 00:19:05;;;;;;;6.40;5.80;;;22.40;93.20;;;;;;4852749;29;20220;-68
2023/06/30 00:21:30;;;;;;;6.40;5.80;;;22.30;93.20;;;;;;4852742;29;20615;-68
2023/06/30 00:24:01;;;;;;;8.43;6.27;;;22.30;93.60;;;;;;4851692;29;20192;-68
2023/06/30 00:26:31;;;;;;;6.17;5.67;;;22.40;93.60;;;;;;4850410;29;20300;-68
2023/06/30 00:28:58;;;;;;;6.80;5.90;;;22.40;93.60;;;;;;4854733;29;20540;-68
2023/06/30 00:31:23;;;;;;;6.90;6.27;;;22.30;93.60;;;;;;4851829;29;20445;-68
2023/06/30 00:33:49;;;;;;;6.37;5.77;;;22.30;93.90;;;;;;4854039;29;20459;-67
2023/06/30 00:36:15;;;;;;;5.70;5.30;;;22.30;94.10;;;;;;4852137;29;20671;-69
2023/06/30 00:38:40;;;;;;;6.17;5.77;;;22.20;94.30;;;;;;4855141;29;20275;-67
2023/06/30 00:41:06;;;;;;;6.90;6.23;;;22.30;94.30;;;;;;4853638;29;20301;-68
2023/06/30 00:43:32;;;;;;;7.00;6.13;;;22.30;94.20;;;;;;4852499;29;20555;-68
2023/06/30 00:45:57;;;;;;;5.80;5.30;;;22.30;94.30;;;;;;4853876;29;20748;-68
2023/06/30 00:48:23;;;;;;;6.17;5.57;;;22.20;94.40;;;;;;4854634;29;20564;-68
2023/06/30 00:50:49;;;;;;;6.57;5.57;;;22.20;94.70;;;;;;4860210;29;20275;-68
2023/06/30 00:53:15;;;;;;;7.13;6.53;;;22.10;94.80;;;;;;4858887;29;20226;-68
2023/06/30 00:55:41;;;;;;;6.33;5.77;;;22.10;95.00;;;;;;4859476;29;20822;-68
2023/06/30 00:58:06;;;;;;;7.20;6.40;;;22.10;95.10;;;;;;4855426;29;20280;-68
2023/06/30 01:00:32;;;;;;;6.90;6.30;;;22.00;95.00;;;;;;4858216;29;20188;-68
2023/06/30 01:03:14;;;;;;;6.50;5.90;;;22.00;95.10;;;;;;4855783;29;20263;-68
2023/06/30 01:05:45;;;;;;;6.43;5.83;;;21.90;95.30;;;;;;4855189;29;20219;-68
2023/06/30 01:08:14;;;;;;;8.30;6.53;;;21.90;95.70;;;;;;4857491;29;20457;-68
2023/06/30 01:10:43;;;;;;;6.37;5.83;;;21.80;95.80;;;;;;4854568;29;20979;-68
2023/06/30 01:13:10;;;;;;;6.28;5.78;;;21.80;95.80;;;;;;4855127;29;20476;-68
2023/06/30 01:15:38;;;;;;;6.53;6.00;;;21.80;95.90;;;;;;4859331;29;20203;-67
2023/06/30 01:18:04;;;;;;;6.50;6.00;;;21.70;96.10;;;;;;4854975;29;20460;-68
2023/06/30 01:20:33;;;;;;;8.20;6.13;;;21.60;96.70;;;;;;4850218;29;20461;-67
2023/06/30 01:23:31;;;;;;;6.28;5.78;;;21.50;96.40;;;;;;4856158;29;20227;-68
2023/06/30 01:25:58;;;;;;;6.40;5.90;;;21.60;96.70;;;;;;4856464;29;20232;-68
2023/06/30 01:28:27;;;;;;;7.03;6.32;;;21.40;96.80;;;;;;4853483;29;20188;-68
2023/06/30 01:30:54;;;;;;;6.85;6.15;;;21.30;97.10;;;;;;4856292;29;20303;-68
2023/06/30 01:33:21;;;;;;;6.30;5.70;;;21.40;97.30;;;;;;4856630;29;20212;-67
2023/06/30 01:35:47;;;;;;;6.20;5.70;;;21.50;97.20;;;;;;4852973;29;20203;-68
2023/06/30 01:38:13;;;;;;;6.33;5.83;;;21.40;97.10;;;;;;4857147;29;20199;-67
2023/06/30 01:40:39;;;;;;;6.90;6.20;;;21.40;97.10;;;;;;4855260;29;20459;-67
2023/06/30 01:43:05;;;;;;;8.33;6.00;;;21.40;97.10;;;;;;4853375;29;20216;-67
2023/06/30 01:45:32;;;;;;;6.25;5.75;;;21.30;97.20;;;;;;4856567;29;20207;-68
2023/06/30 01:47:58;;;;;;;7.00;6.40;;;21.30;97.50;;;;;;4856131;29;20192;-68
2023/06/30 01:50:29;;;;;;;6.22;5.72;;;21.20;97.60;;;;;;4852138;29;20196;-67
2023/06/30 01:52:56;;;;;;;6.82;6.00;;;21.20;97.80;;;;;;4854350;29;20219;-68
2023/06/30 01:55:21;;;;;;;6.20;5.70;;;21.10;97.80;;;;;;4854161;29;20320;-67
2023/06/30 01:57:47;;;;;;;6.40;5.50;;;21.10;97.70;;;;;;4851149;29;20272;-67
2023/06/30 02:00:13;;;;;;;6.43;5.93;;;21.10;98.20;;;;;;4857882;29;20187;-68
2023/06/30 02:02:39;;;;;;;6.90;6.40;;;21.00;98.00;;;;;;4854565;29;20214;-68
2023/06/30 02:05:06;;;;;;;6.32;5.88;;;21.00;98.10;;;;;;4854491;29;20448;-68
2023/06/30 02:07:31;;;;;;;6.18;5.75;;;21.00;98.20;;;;;;4854421;29;20694;-68
2023/06/30 02:09:57;;;;;;;7.50;6.90;;;21.00;98.20;;;;;;4858173;29;20195;-68
2023/06/30 02:12:23;;;;;;;6.80;6.27;;;21.10;98.40;;;;;;4854027;29;20223;-67
2023/06/30 02:14:48;;;;;;;7.00;6.50;;;21.00;98.30;;;;;;4856455;29;20188;-67
2023/06/30 02:17:14;;;;;;;6.17;5.67;;;20.90;98.50;;;;;;4855293;29;20249;-68
2023/06/30 02:19:39;;;;;;;6.13;5.70;;;20.90;98.60;;;;;;4857960;29;20192;-68
2023/06/30 02:22:05;;;;;;;7.00;6.50;;;20.90;98.50;;;;;;4855260;29;20244;-67
2023/06/30 02:24:31;;;;;;;6.57;5.80;;;20.80;98.60;;;;;;4856259;29;20196;-68
2023/06/30 02:26:56;;;;;;;6.00;5.60;;;20.80;98.90;;;;;;4852707;29;20220;-67
2023/06/30 02:29:22;;;;;;;7.03;6.53;;;20.80;98.90;;;;;;4854633;29;20882;-67
2023/06/30 02:31:48;;;;;;;7.30;6.60;;;20.60;99.30;;;;;;4856565;29;20685;-68
2023/06/30 02:34:14;;;;;;;7.30;6.60;;;20.70;99.50;;;;;;4853054;29;20483;-68
2023/06/30 02:36:39;;;;;;;7.20;6.20;;;20.60;99.50;;;;;;4854408;29;20279;-68
2023/06/30 02:39:05;;;;;;;6.97;6.37;;;20.50;99.70;;;;;;4856005;29;20248;-69
2023/06/30 02:41:30;;;;;;;6.70;6.20;;;20.50;99.70;;;;;;4854992;29;20574;-67
2023/06/30 02:43:56;;;;;;;6.53;6.03;;;20.50;99.90;;;;;;4854687;29;20267;-67
2023/06/30 02:46:21;;;;;;;7.50;6.90;;;20.50;99.90;;;;;;4854899;29;20235;-68
2023/06/30 02:48:47;;;;;;;6.60;6.10;;;20.50;99.90;;;;;;4856910;29;20352;-68
2023/06/30 02:51:13;;;;;;;6.47;6.03;;;;;;;;;;4855037;29;20199;-68
2023/06/30 02:53:39;;;;;;;7.00;6.50;;;20.40;99.90;;;;;;4852994;29;20717;-68
2023/06/30 02:56:04;;;;;;;7.00;6.50;;;20.40;99.90;;;;;;4852793;29;20515;-68
2023/06/30 02:58:30;;;;;;;7.37;6.77;;;20.40;99.90;;;;;;4853758;29;20280;-68
2023/06/30 03:00:56;;;;;;;6.93;6.43;;;20.40;99.90;;;;;;4855130;29;20188;-67
2023/06/30 03:03:22;;;;;;;7.60;7.00;;;20.30;99.90;;;;;;4853284;29;20485;-68
2023/06/30 03:05:47;;;;;;;7.17;6.57;;;20.30;99.90;;;;;;4851712;29;20227;-68
2023/06/30 03:08:13;;;;;;;7.37;6.73;;;20.30;99.90;;;;;;4856459;29;20200;-68
2023/06/30 03:10:39;;;;;;;6.93;6.33;;;20.40;99.90;;;;;;4857629;29;20271;-68
2023/06/30 03:13:04;;;;;;;6.93;6.33;;;20.30;99.90;;;;;;4853456;29;20239;-68
2023/06/30 03:15:30;;;;;;;7.30;6.70;;;20.30;99.90;;;;;;4856785;29;20188;-68
2023/06/30 03:17:56;;;;;;;6.80;6.30;;;20.40;99.90;;;;;;4856712;29;20256;-68
2023/06/30 03:20:22;;;;;;;7.33;6.63;;;20.20;99.90;;;;;;4854093;29;20199;-67
2023/06/30 03:22:47;;;;;;;9.38;7.20;;;20.20;99.90;;;;;;4856892;29;20211;-68
2023/06/30 03:25:13;;;;;;;7.10;6.60;;;20.20;99.90;;;;;;4855976;29;20200;-67
2023/06/30 03:27:39;;;;;;;7.07;6.47;;;20.20;99.90;;;;;;4854828;29;20306;-69
2023/06/30 03:30:06;;;;;;;7.38;6.75;;;20.10;99.90;;;;;;4854480;29;20654;-68
2023/06/30 03:32:32;;;;;;;9.10;6.75;;;20.10;99.90;;;;;;4856117;29;20216;-67
2023/06/30 03:34:59;;;;;;;7.27;6.67;;;20.10;99.90;;;;;;4854179;29;20192;-68
2023/06/30 03:37:25;;;;;;;7.00;6.40;;;20.00;99.90;;;;;;4858033;29;20650;-67
2023/06/30 03:39:50;;;;;;;6.97;6.37;;;20.10;99.90;;;;;;4856630;29;20244;-67
2023/06/30 03:42:16;;;;;;;7.27;6.60;;;20.10;99.90;;;;;;4853090;29;20690;-68
2023/06/30 03:44:42;;;;;;;7.90;7.17;;;20.10;99.90;;;;;;4855003;29;20195;-67
2023/06/30 03:47:07;;;;;;;7.83;7.10;;;20.10;99.90;;;;;;4854341;29;20222;-68
2023/06/30 03:49:33;;;;;;;6.90;6.30;;;20.10;99.90;;;;;;4858472;29;20300;-67
2023/06/30 03:51:58;;;;;;;7.20;6.50;;;20.00;99.90;;;;;;4856205;29;20207;-72
2023/06/30 03:54:24;;;;;;;7.43;6.83;;;20.10;99.90;;;;;;4862918;29;20786;-72
2023/06/30 03:56:50;;;;;;;6.93;6.43;;;20.10;99.90;;;;;;4852256;29;20195;-72
2023/06/30 03:59:16;;;;;;;7.43;6.73;;;20.20;99.90;;;;;;4856440;29;20997;-72
2023/06/30 04:01:42;;;;;;;6.80;6.20;;;20.20;99.90;;;;;;4858792;29;20219;-72
2023/06/30 04:04:07;;;;;;;10.80;7.03;;;20.60;99.90;;;;;;4859235;29;20196;-72
2023/06/30 04:06:33;;;;;;;7.83;7.13;;;20.30;99.90;;;;;;4857955;29;20224;-72
2023/06/30 04:09:02;;;;;;;6.47;5.97;;;20.40;99.90;;;;;;4860669;29;20288;-73
2023/06/30 04:11:27;;;;;;;7.38;6.78;;;20.40;99.90;;;;;;4862518;29;20200;-73
2023/06/30 04:13:53;;;;;;;6.97;6.33;;;20.50;99.90;;;;;;4864378;29;21090;-72
2023/06/30 04:16:18;;;;;;;7.33;6.73;;;20.50;99.90;;;;;;4855717;29;20188;-72
2023/06/30 04:18:44;;;;;;;7.03;6.47;;;20.60;99.90;;;;;;4858341;29;20643;-72
2023/06/30 04:21:10;;;;;;;6.57;6.07;;;20.60;99.90;;;;;;4861232;29;20673;-73
2023/06/30 04:23:36;;;;;;;7.00;6.37;;;20.70;99.90;;;;;;4860451;29;20218;-72
2023/06/30 04:26:04;;;;;;;7.32;6.72;;;20.70;99.90;;;;;;4854529;29;20238;-73
2023/06/30 04:28:30;;;;;;;7.38;6.72;;;20.70;99.90;;;;;;4857807;29;20194;-73
2023/06/30 04:30:56;;;;;;;7.50;6.80;;;20.80;99.90;;;;;;4863627;29;20582;-72
2023/06/30 04:33:21;;;;;;;7.32;6.72;;;20.80;99.90;;;;;;4855143;29;21098;-73
2023/06/30 04:35:47;;;;;;;8.27;7.67;;;20.80;99.90;;;;;;4859149;29;20196;-72
2023/06/30 04:38:13;;;;;;;7.90;7.10;;;20.90;99.90;;;;;;4854197;29;20670;-74
2023/06/30 04:40:38;;;;;;;7.40;6.70;;;20.50;99.90;;;;;;4859895;29;20205;-72
2023/06/30 04:43:11;;;;;;;6.77;6.27;;;21.00;99.90;;;;;;4855982;29;20244;-72
2023/06/30 04:45:36;;;;;;;6.85;6.25;;;21.00;99.90;;;;;;4856233;29;20183;-72
2023/06/30 04:48:02;;;;;;;11.53;6.90;;;21.10;99.90;;;;;;4861715;29;20194;-73
2023/06/30 04:50:28;;;;;;;8.70;6.73;;;21.10;99.80;;;;;;4860767;29;20192;-74
2023/06/30 04:52:53;;;;;;;7.13;6.43;;;21.10;99.80;;;;;;4857393;29;20207;-77
2023/06/30 04:55:19;;;;;;;8.07;7.27;;;21.10;99.70;;;;;;4854420;29;20189;-70
2023/06/30 04:57:44;;;;;;;8.57;7.87;;;21.10;99.90;;;;;;4850604;29;20732;-72
2023/06/30 05:00:10;;;;;;;8.20;7.50;;;21.10;99.90;;;;;;4850990;29;20257;-66
2023/06/30 05:02:36;;;;;;;9.55;8.57;;;21.10;99.90;;;;;;4849657;29;21089;-67
2023/06/30 05:05:02;;;;;;;7.87;7.27;;;21.10;99.90;;;;;;4846919;29;20244;-72
2023/06/30 05:07:27;;;;;;;8.53;7.53;;;21.10;99.90;;;;;;4850717;29;20302;-71
2023/06/30 05:09:53;;;;;;;8.40;7.70;;;21.10;99.90;;;;;;4851990;29;20184;-71
2023/06/30 05:12:18;;;;;;;9.93;9.13;;;21.10;99.90;;;;;;4843729;29;20220;-70
2023/06/30 05:14:44;;;;;;;8.37;7.63;;;21.00;99.90;;;;;;4852742;29;20281;-70
2023/06/30 05:17:10;;;;;;;8.63;7.83;;;20.90;99.90;;;;;;4850830;29;20192;-71
2023/06/30 05:19:36;;;;;;;10.30;8.30;;;21.00;99.90;;;;;;4851445;29;20609;-77
2023/06/30 05:22:01;;;;;;;8.87;8.03;;;21.00;99.90;;;;;;4843830;29;20208;-69
2023/06/30 05:24:27;;;;;;;9.10;8.40;;;21.00;99.90;;;;;;4856384;29;20968;-69
2023/06/30 05:26:54;;;;;;;8.53;7.73;;;20.90;99.90;;;;;;4854282;29;20592;-71
2023/06/30 05:29:20;;;;;;;9.68;8.55;;;20.80;99.90;;;;;;4858302;29;20200;-73
2023/06/30 05:31:45;;;;;;;10.25;9.40;;;20.70;99.90;;;;;;4854901;29;20204;-64
2023/06/30 05:34:15;;;;;;;11.73;10.70;;;20.60;99.90;;;;;;4851567;29;20184;-64
2023/06/30 05:36:43;;;;;;;11.60;10.45;;;20.30;99.90;;;;;;4852944;29;20189;-69
2023/06/30 05:39:08;;;;;;;13.82;12.43;;;20.20;99.90;;;;;;4855759;29;20249;-65
2023/06/30 05:41:34;;;;;;;11.50;10.60;;;20.10;99.90;;;;;;4858410;29;20693;-68
2023/06/30 05:43:59;;;;;;;13.30;11.60;;;20.00;99.90;;;;;;4855956;29;20228;-69
2023/06/30 05:46:25;;;;;;;14.43;13.03;;;20.00;99.90;;;;;;4852661;29;20209;-65
2023/06/30 05:48:51;;;;;;;12.87;11.60;;;20.00;99.90;;;;;;4855232;29;20890;-66
2023/06/30 05:51:16;;;;;;;12.93;11.63;;;19.80;99.90;;;;;;4866092;29;21149;-66
2023/06/30 05:53:42;;;;;;;12.70;11.50;;;19.80;99.90;;;;;;4856917;29;20279;-70
2023/06/30 05:56:07;;;;;;;13.23;11.97;;;19.70;99.90;;;;;;4852876;29;20346;-71
2023/06/30 05:58:34;;;;;;;13.17;12.00;;;19.70;99.90;;;;;;4856760;29;20196;-71
2023/06/30 06:01:00;;;;;;;14.20;12.85;;;19.60;99.90;;;;;;4861559;29;20379;-69
2023/06/30 06:03:30;;;;;;;12.50;11.30;;;19.60;99.90;;;;;;4854596;29;20412;-66
2023/06/30 06:05:58;;;;;;;15.18;13.68;;;19.60;99.90;;;;;;4850592;29;20268;-65
2023/06/30 06:08:24;;;;;;;13.82;12.43;;;19.60;99.90;;;;;;4856715;29;20199;-65
2023/06/30 06:10:49;;;;;;;15.27;13.67;;;19.60;99.90;;;;;;4854454;29;20188;-66
2023/06/30 06:13:38;;;;;;;16.27;14.23;;;19.60;99.90;;;;;;4854220;29;20232;-66
2023/06/30 06:16:05;;;;;;;14.60;13.23;;;19.50;99.90;;;;;;4867692;29;20196;-62
2023/06/30 06:18:31;;;;;;;13.73;12.43;;;19.50;99.90;;;;;;4854111;29;20192;-67
2023/06/30 06:20:58;;;;;;;14.32;12.98;;;19.50;99.90;;;;;;4855428;29;20235;-66
2023/06/30 06:23:25;;;;;;;14.85;11.68;;;19.60;99.90;;;;;;4854564;29;20294;-63
2023/06/30 06:25:51;;;;;;;13.68;12.55;;;19.70;99.90;;;;;;4853987;29;20216;-64
2023/06/30 06:28:17;;;;;;;13.43;12.32;;;19.70;99.90;;;;;;4852987;29;21926;-70
2023/06/30 06:30:43;;;;;;;15.18;13.88;;;19.80;99.90;;;;;;4854792;29;20369;-69
2023/06/30 06:33:09;;;;;;;13.95;12.75;;;19.80;99.90;;;;;;4855892;29;20204;-66
2023/06/30 06:35:34;;;;;;;16.50;14.73;;;19.70;99.90;;;;;;4852161;29;20196;-66
2023/06/30 06:38:00;;;;;;;16.27;14.77;;;19.70;99.90;;;;;;4855416;29;20192;-67
2023/06/30 06:40:28;;;;;;;14.70;13.50;;;19.70;99.90;;;;;;4853346;29;20192;-73
2023/06/30 06:42:55;;;;;;;16.10;14.60;;;19.60;99.90;;;;;;4863738;29;20262;-71
2023/06/30 06:45:21;;;;;;;15.77;14.45;;;19.60;99.90;;;;;;4862865;29;20187;-72
2023/06/30 06:48:19;;;;;;;17.20;15.35;;;19.70;99.90;;;;;;4865130;29;20208;-71
2023/06/30 06:50:45;;;;;;;22.92;20.48;;;19.80;99.90;;;;;;4853550;29;20212;-65
2023/06/30 06:53:15;;;;;;;15.02;13.63;;;19.90;99.90;;;;;;4855808;29;20215;-69
2023/06/30 06:55:41;;;;;;;14.82;13.55;;;19.90;99.90;;;;;;4851906;29;20200;-70
2023/06/30 06:58:06;;;;;;;14.00;12.90;;;20.10;99.90;;;;;;4853829;29;20651;-70
2023/06/30 07:00:32;;;;;;;16.50;14.90;;;20.20;99.90;;;;;;4854178;29;20252;-71
2023/06/30 07:02:58;;;;;;;16.47;14.77;;;20.30;99.90;;;;;;4856660;29;20216;-71
2023/06/30 07:05:23;;;;;;;14.90;13.60;;;20.40;99.90;;;;;;4855384;29;20216;-69
2023/06/30 07:07:49;;;;;;;15.97;14.33;;;20.50;99.90;;;;;;4855156;29;20216;-72
2023/06/30 07:10:14;;;;;;;15.43;14.03;;;20.70;99.90;;;;;;4855811;29;20192;-73
2023/06/30 07:12:40;;;;;;;15.03;13.63;;;20.70;99.90;;;;;;4860155;29;20546;-74
2023/06/30 07:15:06;;;;;;;16.03;14.57;;;20.70;99.90;;;;;;4861062;29;20649;-76
2023/06/30 07:17:31;;;;;;;15.80;14.30;;;20.80;99.90;;;;;;4852692;29;20246;-73
2023/06/30 07:19:57;;;;;;;14.30;13.10;;;21.10;99.90;;;;;;4850852;29;20460;-72
2023/06/30 07:22:23;;;;;;;14.17;12.83;;;20.60;99.90;;;;;;4852894;29;20212;-68
2023/06/30 07:24:48;;;;;;;13.70;12.50;;;21.00;99.90;;;;;;4856040;29;20192;-68
2023/06/30 07:27:14;;;;;;;13.47;12.27;;;21.00;99.90;;;;;;4851465;29;20305;-66
2023/06/30 07:29:39;;;;;;;14.27;13.07;;;20.80;99.90;;;;;;4849006;29;20364;-66
2023/06/30 07:32:05;;;;;;;14.27;13.17;;;20.90;99.90;;;;;;4854741;29;20219;-66
2023/06/30 07:34:33;;;;;;;14.35;12.88;;;21.00;99.90;;;;;;4852143;29;20324;-69
2023/06/30 07:37:00;;;;;;;16.10;14.70;;;21.10;99.90;;;;;;4853018;29;20220;-69
2023/06/30 07:39:25;;;;;;;15.60;14.30;;;21.10;99.90;;;;;;4855395;29;20188;-69
2023/06/30 07:41:51;;;;;;;15.50;14.13;;;21.00;99.90;;;;;;4851656;29;20240;-71
2023/06/30 07:44:17;;;;;;;16.00;14.50;;;21.10;99.90;;;;;;4855855;29;20473;-72
2023/06/30 07:46:43;;;;;;;13.40;12.07;;;21.00;99.90;;;;;;4853547;29;20371;-72
2023/06/30 07:49:08;;;;;;;14.03;12.73;;;20.90;99.90;;;;;;4852310;29;20999;-71
2023/06/30 07:51:34;;;;;;;13.53;12.23;;;21.00;99.90;;;;;;4850439;29;20656;-72
2023/06/30 07:53:59;;;;;;;14.80;13.20;;;21.00;99.90;;;;;;4856915;29;20636;-71
2023/06/30 07:56:25;;;;;;;12.83;11.60;;;21.40;99.90;;;;;;4851319;29;20297;-72
2023/06/30 07:58:50;;;;;;;14.40;12.10;;;20.80;99.90;;;;;;4857306;29;20197;-72
2023/06/30 08:01:16;;;;;;;13.10;11.53;;;20.80;99.90;;;;;;4854475;29;20256;-71
2023/06/30 08:03:42;;;;;;;15.83;12.57;;;20.80;99.90;;;;;;4854413;29;20196;-71
2023/06/30 08:06:07;;;;;;;13.23;11.80;;;20.90;99.90;;;;;;4853129;29;20332;-71
2023/06/30 08:08:33;;;;;;;13.53;12.03;;;20.80;99.90;;;;;;4855288;29;20196;-72
2023/06/30 08:10:59;;;;;;;13.03;11.57;;;20.80;99.90;;;;;;4852719;29;20305;-72
2023/06/30 08:13:25;;;;;;;16.13;12.47;;;20.80;99.90;;;;;;4852327;29;20212;-72
2023/06/30 08:15:51;;;;;;;13.45;12.05;;;20.80;99.90;;;;;;4854072;29;20453;-72
2023/06/30 08:18:16;;;;;;;13.17;11.80;;;20.70;99.90;;;;;;4849484;29;21197;-71
2023/06/30 08:20:42;;;;;;;13.83;12.43;;;20.80;99.90;;;;;;4856538;29;20193;-72
2023/06/30 08:23:10;;;;;;;14.13;12.27;;;20.70;99.90;;;;;;4852859;29;20211;-71
2023/06/30 08:25:35;;;;;;;13.55;12.13;;;20.70;99.90;;;;;;4846534;29;20185;-72
2023/06/30 08:28:01;;;;;;;14.10;12.60;;;20.70;99.90;;;;;;4850961;29;20195;-72
2023/06/30 08:30:27;;;;;;;14.97;13.37;;;20.70;99.90;;;;;;4850975;29;20188;-71
2023/06/30 08:32:54;;;;;;;14.73;13.23;;;20.50;99.90;;;;;;4853472;29;20307;-72
2023/06/30 08:35:20;;;;;;;14.05;12.65;;;20.40;99.90;;;;;;4852476;29;20191;-72
2023/06/30 08:37:45;;;;;;;14.33;12.90;;;20.30;99.90;;;;;;4855671;29;20562;-73
2023/06/30 08:40:12;;;;;;;14.80;13.30;;;20.80;99.90;;;;;;4856201;29;20509;-73
2023/06/30 08:42:43;;;;;;;15.85;13.63;;;20.30;99.90;;;;;;4851169;29;20240;-69
2023/06/30 08:45:12;;;;;;;15.95;13.85;;;20.30;99.90;;;;;;4853592;29;20210;-68
2023/06/30 08:47:38;;;;;;;16.55;14.45;;;20.10;99.90;;;;;;4853511;29;20307;-72
2023/06/30 08:50:05;;;;;;;20.33;15.60;;;20.20;99.90;;;;;;4855821;29;20331;-67
2023/06/30 08:52:31;;;;;;;18.08;15.15;;;20.20;99.90;;;;;;4849740;29;20504;-65
2023/06/30 08:55:01;;;;;;;17.20;14.27;;;20.20;99.90;;;;;;4851191;29;20283;-67
2023/06/30 08:57:26;;;;;;;17.70;14.10;;;20.10;99.90;;;;;;4851366;29;20628;-66
2023/06/30 08:59:52;;;;;;;14.50;12.33;;;20.00;99.90;;;;;;4856722;29;20207;-64
2023/06/30 09:02:18;;;;;;;15.47;13.77;;;19.80;99.90;;;;;;4854996;29;20693;-67
2023/06/30 09:04:44;;;;;;;16.58;13.90;;;19.80;99.90;;;;;;4852667;29;20197;-65
2023/06/30 09:07:15;;;;;;;15.60;13.93;;;19.70;99.90;;;;;;4856893;29;20210;-67
2023/06/30 09:09:45;;;;;;;17.15;13.25;;;19.70;99.90;;;;;;4857843;29;20180;-65
2023/06/30 09:12:12;;;;;;;16.77;14.38;;;19.10;99.90;;;;;;4854701;29;20207;-65
2023/06/30 09:14:42;;;;;;;15.75;13.63;;;19.50;99.90;;;;;;4853584;29;20200;-66
2023/06/30 09:17:08;;;;;;;16.20;14.50;;;19.60;99.90;;;;;;4852311;29;20195;-66
2023/06/30 09:19:35;;;;;;;17.40;14.10;;;19.50;99.90;;;;;;4853461;29;20510;-67
2023/06/30 09:22:02;;;;;;;17.50;15.23;;;19.50;99.90;;;;;;4860021;29;20713;-66
2023/06/30 09:24:28;;;;;;;18.80;14.55;;;19.50;99.90;;;;;;4853628;29;20196;-65
2023/06/30 09:26:53;;;;;;;14.73;13.23;;;21.00;99.90;;;;;;4850900;29;20268;-65
2023/06/30 09:29:23;;;;;;;16.40;14.60;;;19.50;99.90;;;;;;4854144;29;20260;-66
2023/06/30 09:31:52;;;;;;;15.15;13.63;;;19.50;99.90;;;;;;4855589;29;20207;-66
2023/06/30 09:34:21;;;;;;;16.10;14.48;;;19.80;99.90;;;;;;4858954;29;20200;-69
2023/06/30 09:36:48;;;;;;;16.67;14.90;;;19.20;99.90;;;;;;4852031;29;20223;-72
2023/06/30 09:39:13;;;;;;;17.02;14.48;;;19.50;99.90;;;;;;4858515;29;20196;-72
2023/06/30 09:41:42;;;;;;;15.63;13.97;;;19.50;99.90;;;;;;4852556;29;20212;-70
2023/06/30 09:44:10;;;;;;;15.43;13.75;;;19.60;99.90;;;;;;4852194;29;20250;-70
2023/06/30 09:46:35;;;;;;;15.00;13.40;;;19.60;99.90;;;;;;4852362;29;20299;-70
2023/06/30 09:49:04;;;;;;;14.13;12.73;;;19.70;99.90;;;;;;4857110;29;20272;-70
2023/06/30 09:51:32;;;;;;;15.32;13.73;;;19.80;99.90;;;;;;4854397;29;20279;-71
2023/06/30 09:53:58;;;;;;;15.25;13.65;;;19.30;99.90;;;;;;4854529;29;20705;-70
2023/06/30 09:56:23;;;;;;;16.47;14.53;;;19.90;99.90;;;;;;4853444;29;20225;-69
2023/06/30 09:58:59;;;;;;;14.57;13.03;;;20.00;99.90;;;;;;4858762;29;20252;-69
2023/06/30 10:01:25;;;;;;;15.00;13.48;;;20.10;99.90;;;;;;4854564;29;20278;-72
2023/06/30 10:03:54;;;;;;;15.53;14.03;;;20.10;99.90;;;;;;4852962;29;20560;-69
2023/06/30 10:06:23;;;;;;;16.27;14.65;;;20.20;99.90;;;;;;4856680;29;20223;-70
2023/06/30 10:08:51;;;;;;;13.10;11.73;;;20.30;99.90;;;;;;4854971;29;20240;-71
2023/06/30 10:11:20;;;;;;;15.77;12.77;;;20.20;99.90;;;;;;4854088;29;20272;-70
2023/06/30 10:13:47;;;;;;;14.73;13.05;;;20.20;99.90;;;;;;4856977;29;20542;-68
2023/06/30 10:16:14;;;;;;;14.77;13.27;;;20.20;99.90;;;;;;4855953;29;20213;-69
2023/06/30 10:18:45;;;;;;;15.25;13.75;;;20.30;99.90;;;;;;4856728;29;20220;-70
2023/06/30 10:21:11;;;;;;;16.70;14.55;;;20.40;99.90;;;;;;4852132;29;20636;-69
2023/06/30 10:23:39;;;;;;;17.57;15.77;;;20.40;99.90;;;;;;4858389;29;20769;-69
2023/06/30 10:26:06;;;;;;;14.32;12.73;;;20.40;99.90;;;;;;4853302;29;20469;-70
2023/06/30 10:28:34;;;;;;;14.50;13.10;;;20.50;99.90;;;;;;4855281;29;20203;-70
2023/06/30 10:31:00;;;;;;;20.27;18.17;;;20.60;99.90;;;;;;4856259;29;20731;-70
2023/06/30 10:33:26;;;;;;;14.60;13.10;;;20.60;99.90;;;;;;4853463;29;20240;-69
2023/06/30 10:35:52;;;;;;;13.10;11.70;;;20.60;99.90;;;;;;4846511;29;20189;-69
2023/06/30 10:38:18;;;;;;;14.10;12.57;;;20.70;99.90;;;;;;4856585;29;20784;-69
2023/06/30 10:40:44;;;;;;;13.50;12.20;;;20.60;99.90;;;;;;4856819;29;20196;-70
2023/06/30 10:43:10;;;;;;;14.77;12.70;;;20.70;99.90;;;;;;4849247;29;20885;-66
2023/06/30 10:46:06;;;;;;;13.70;12.40;;;20.80;99.90;;;;;;4853762;29;20440;-65
2023/06/30 10:48:32;;;;;;;14.85;13.45;;;20.90;99.90;;;;;;4856592;29;20221;-65
2023/06/30 10:50:57;;;;;;;16.40;14.65;;;21.00;99.90;;;;;;4852576;29;20678;-65
2023/06/30 10:53:26;;;;;;;14.90;13.50;;;21.10;99.90;;;;;;4854618;29;20217;-65
2023/06/30 10:55:58;;;;;;;14.48;13.07;;;21.10;99.90;;;;;;4853086;29;20188;-65
2023/06/30 10:58:26;;;;;;;13.75;12.35;;;21.10;99.90;;;;;;4853241;29;20252;-65
2023/06/30 11:01:05;;;;;;;14.23;12.88;;;21.30;99.90;;;;;;4851442;29;20189;-65
2023/06/30 11:03:56;;;;;;;14.65;13.15;;;21.30;99.90;;;;;;4851579;29;20200;-66
2023/06/30 11:06:23;;;;;;;15.10;13.20;;;21.40;99.90;;;;;;4848984;29;20637;-66
2023/06/30 11:09:09;;;;;;;15.30;13.90;;;21.50;99.90;;;;;;4850027;29;20193;-63
2023/06/30 11:11:51;;;;;;;16.75;15.05;;;21.50;99.90;;;;;;4851765;29;20544;-64
2023/06/30 11:14:32;;;;;;;15.60;14.00;;;21.50;99.90;;;;;;4854665;29;20339;-64
2023/06/30 11:17:07;;;;;;;17.23;15.60;;;21.70;99.90;;;;;;4854380;29;20200;-66
2023/06/30 11:19:35;;;;;;;16.80;15.10;;;21.70;99.90;;;;;;4853500;29;20237;-65
2023/06/30 11:22:30;;;;;;;17.80;15.93;;;21.70;99.90;;;;;;4854888;29;20294;-65
2023/06/30 11:24:56;;;;;;;19.88;15.48;;;21.70;99.90;;;;;;4854610;29;20244;-65
2023/06/30 11:27:21;;;;;;;20.10;18.00;;;21.70;99.90;;;;;;4845283;29;20245;-65
2023/06/30 11:29:54;;;;;;;19.17;17.30;;;21.60;99.90;;;;;;4853025;29;20453;-64
2023/06/30 11:32:27;;;;;;;19.17;17.15;;;21.40;99.90;;;;;;4851184;29;20237;-63
2023/06/30 11:34:54;;;;;;;19.60;17.58;;;21.40;99.90;;;;;;4852042;29;20738;-66
2023/06/30 11:37:20;;;;;;;21.05;18.90;;;21.40;99.90;;;;;;4853218;29;20278;-63
2023/06/30 11:39:52;;;;;;;21.47;19.20;;;21.60;99.90;;;;;;4851701;29;20324;-65
2023/06/30 11:42:19;;;;;;;20.20;18.17;;;21.70;99.90;;;;;;4849415;29;20222;-63
2023/06/30 11:44:44;;;;;;;21.93;19.80;;;21.80;99.90;;;;;;4851507;29;20197;-64
2023/06/30 11:47:10;;;;;;;21.17;19.07;;;21.90;99.90;;;;;;4850149;29;20548;-64
2023/06/30 11:49:39;;;;;;;22.77;20.33;;;21.70;99.90;;;;;;4856470;29;20191;-65
2023/06/30 11:52:05;;;;;;;21.67;19.43;;;21.80;99.90;;;;;;4851775;29;20210;-65
2023/06/30 11:54:32;;;;;;;21.70;19.60;;;21.90;99.90;;;;;;4858374;29;20887;-66
2023/06/30 11:56:58;;;;;;;21.95;19.70;;;22.10;99.90;;;;;;4847809;29;20463;-65
2023/06/30 11:59:27;;;;;;;31.03;20.60;;;22.30;99.90;;;;;;4848970;29;20274;-65
2023/06/30 12:01:55;;;;;;;21.97;19.67;;;22.50;99.90;;;;;;4852165;29;22083;-66
2023/06/30 12:04:21;;;;;;;22.47;20.07;;;22.60;99.90;;;;;;4857528;29;20568;-62
2023/06/30 12:06:47;;;;;;;22.13;19.60;;;22.40;99.90;;;;;;4851228;29;20512;-62
2023/06/30 12:09:13;;;;;;;21.10;18.97;;;22.40;99.90;;;;;;4851380;29;20192;-62
2023/06/30 12:11:45;;;;;;;22.20;19.90;;;22.50;99.90;;;;;;4854713;29;20966;-62
2023/06/30 12:14:14;;;;;;;21.03;18.93;;;22.70;99.90;;;;;;4852475;29;20448;-62
2023/06/30 12:16:48;;;;;;;21.33;19.13;;;22.80;99.90;;;;;;4851342;29;20461;-62
2023/06/30 12:19:14;;;;;;;19.47;17.57;;;22.90;99.90;;;;;;4851995;29;20444;-61
2023/06/30 12:21:53;;;;;;;20.27;17.27;;;22.80;99.90;;;;;;4854672;29;20782;-62
2023/06/30 12:24:20;;;;;;;20.93;18.73;;;22.90;99.90;;;;;;4856163;29;20858;-61
2023/06/30 12:26:48;;;;;;;20.27;18.27;;;22.60;99.90;;;;;;4847531;29;20483;-61
2023/06/30 12:29:16;;;;;;;22.40;20.10;;;22.60;99.90;;;;;;4855143;29;20476;-62
2023/06/30 12:31:45;;;;;;;21.50;19.30;;;22.50;99.90;;;;;;4852580;29;20469;-62
2023/06/30 12:34:10;;;;;;;22.03;19.73;;;22.70;99.90;;;;;;4850878;29;20817;-62
2023/06/30 12:36:36;;;;;;;20.00;17.90;;;22.60;99.90;;;;;;4851598;29;20456;-62